createdAt,value
2019-06-10T00:41:43.352Z,2.05
2019-06-10T00:44:12.780Z,2.22
2019-06-10T00:46:40.895Z,1.70
2019-06-10T00:49:14.346Z,1.90
2019-06-10T00:51:41.450Z,1.87
2019-06-10T00:54:08.643Z,1.60
2019-06-10T00:56:37.302Z,1.87
2019-06-10T00:59:06.229Z,1.67
2019-06-10T01:01:34.750Z,1.85
2019-06-10T01:21:21.847Z,2.10
2019-06-10T01:23:48.178Z,1.98
2019-06-10T01:26:18.225Z,1.85
2019-06-10T01:28:45.550Z,1.62
2019-06-10T01:31:19.175Z,2.02
2019-06-10T01:33:42.902Z,1.90
2019-06-10T01:36:13.386Z,1.70
2019-06-10T01:38:40.953Z,1.95
2019-06-10T01:41:10.683Z,1.50
2019-06-10T01:43:37.227Z,2.08
2019-06-10T01:46:06.635Z,1.82
2019-06-10T01:48:44.309Z,1.80
2019-06-10T01:51:03.902Z,1.80
2019-06-10T01:53:32.731Z,2.20
2019-06-10T01:56:01.215Z,2.00
2019-06-10T01:58:31.646Z,1.70
2019-06-10T02:01:03.706Z,2.00
2019-06-10T02:03:32.489Z,2.15
2019-06-10T02:06:01.567Z,1.90
2019-06-10T02:08:31.681Z,1.85
2019-06-10T02:10:58.170Z,2.02
2019-06-10T02:13:32.670Z,1.70
2019-06-10T02:16:01.088Z,1.90
2019-06-10T02:18:31.659Z,1.92
2019-06-10T02:21:00.718Z,1.80
2019-06-10T02:23:26.746Z,1.75
2019-06-10T02:25:55.577Z,2.20
2019-06-10T02:28:24.058Z,1.98
2019-06-10T02:30:55.694Z,1.90
2019-06-10T02:33:29.947Z,2.10
2019-06-10T02:35:49.692Z,2.42
2019-06-10T02:38:24.687Z,2.12
2019-06-10T02:40:47.018Z,2.30
2019-06-10T02:43:20.803Z,1.72
2019-06-10T02:45:44.924Z,2.20
2019-06-10T02:48:16.191Z,1.80
2019-06-10T02:51:03.775Z,2.20
2019-06-10T02:53:35.157Z,1.90
2019-06-10T02:55:58.994Z,2.08
2019-06-10T02:58:33.292Z,1.80
2019-06-10T03:00:56.047Z,2.80
2019-06-10T03:03:35.367Z,1.80
2019-06-10T03:05:53.809Z,2.05
2019-06-10T03:08:26.644Z,2.10
2019-06-10T03:10:50.270Z,2.02
2019-06-10T03:13:19.734Z,2.12
2019-06-10T03:15:52.200Z,1.80
2019-06-10T03:18:19.833Z,1.95
2019-06-10T03:20:47.497Z,1.95
2019-06-10T03:23:16.022Z,2.20
2019-06-10T03:25:44.493Z,2.20
2019-06-10T03:28:12.999Z,2.15
2019-06-10T03:30:53.442Z,2.25
2019-06-10T03:33:13.569Z,1.80
2019-06-10T03:35:38.582Z,1.77
2019-06-10T03:38:07.053Z,2.30
2019-06-10T03:40:35.797Z,2.17
2019-06-10T03:43:04.346Z,2.10
2019-06-10T03:45:32.857Z,2.10
2019-06-10T03:48:03.614Z,1.90
2019-06-10T03:50:32.370Z,1.80
2019-06-10T04:10:17.846Z,1.87
2019-06-10T04:12:46.348Z,2.05
2019-06-10T04:15:14.901Z,1.95
2019-06-10T04:17:43.405Z,2.27
2019-06-10T04:37:32.321Z,2.62
2019-06-10T04:39:58.912Z,2.00
2019-06-10T04:59:44.684Z,2.10
2019-06-10T05:02:14.720Z,1.90
2019-06-10T05:04:43.481Z,1.92
2019-06-10T05:07:12.605Z,2.10
2019-06-10T05:09:42.264Z,1.72
2019-06-10T05:12:09.177Z,2.27
2019-06-10T05:14:37.685Z,2.17
2019-06-10T05:17:06.281Z,1.98
2019-06-10T05:19:34.780Z,2.15
2019-06-10T05:22:03.343Z,1.95
2019-06-10T05:24:34.314Z,2.00
2019-06-10T05:27:02.117Z,1.75
2019-06-10T05:46:47.812Z,1.80
2019-06-10T05:49:16.298Z,1.98
2019-06-10T05:51:44.788Z,1.52
2019-06-10T05:54:13.308Z,2.10
2019-06-10T05:56:43.217Z,1.95
2019-06-10T05:59:12.089Z,1.98
2019-06-10T06:01:39.085Z,1.75
2019-06-10T06:04:07.620Z,2.02
2019-06-10T06:06:37.508Z,1.90
2019-06-10T06:09:07.074Z,1.70
2019-06-10T06:11:35.576Z,1.85
2019-06-10T06:14:04.175Z,1.72
2019-06-10T06:16:34.819Z,1.87
2019-06-10T06:21:42.117Z,1.90
2019-06-10T06:24:04.686Z,1.52
2019-06-10T06:26:36.288Z,1.70
2019-06-10T06:29:02.225Z,1.52
2019-06-10T06:31:32.865Z,1.95
2019-06-10T06:33:58.973Z,1.80
2019-06-10T06:36:28.563Z,1.60
2019-06-10T06:38:56.317Z,1.70
2019-06-10T06:41:25.090Z,1.72
2019-06-10T06:43:53.948Z,1.65
2019-06-10T06:46:23.392Z,1.40
2019-06-10T06:48:53.295Z,1.37
2019-06-10T06:51:35.472Z,1.70
2019-06-10T06:53:52.033Z,1.60
2019-06-10T06:56:16.720Z,1.70
2019-06-10T06:58:45.615Z,1.55
2019-06-10T07:01:14.810Z,1.65
2019-06-10T07:03:45.071Z,1.80
2019-06-10T07:06:13.188Z,1.70
2019-06-10T07:08:41.455Z,1.60
2019-06-10T07:11:08.868Z,1.55
2019-06-10T07:13:39.218Z,1.60
2019-06-10T07:16:07.079Z,1.65
2019-06-10T07:18:40.942Z,1.55
2019-06-10T07:21:04.403Z,1.87
2019-06-10T07:23:36.077Z,2.10
2019-06-10T07:26:02.443Z,1.57
2019-06-10T07:28:33.962Z,1.55
2019-06-10T07:30:59.199Z,2.05
2019-06-10T07:33:27.730Z,1.57
2019-06-10T07:35:56.766Z,1.55
2019-06-10T07:38:26.347Z,1.90
2019-06-10T07:40:53.943Z,1.70
2019-06-10T07:43:23.149Z,1.75
2019-06-10T07:45:53.413Z,1.72
2019-06-10T07:48:19.559Z,1.60
2019-06-10T07:50:48.127Z,1.70
2019-06-10T07:53:16.629Z,1.60
2019-06-10T07:55:46.534Z,1.70
2019-06-10T07:58:13.977Z,1.62
2019-06-10T08:00:47.489Z,1.72
2019-06-10T08:03:12.906Z,1.50
2019-06-10T08:05:40.115Z,2.75
2019-06-10T08:08:08.190Z,1.90
2019-06-10T08:10:37.107Z,1.85
2019-06-10T08:13:05.542Z,2.20
2019-06-10T08:15:34.031Z,1.80
2019-06-10T08:18:04.283Z,1.90
2019-06-10T08:20:36.965Z,1.95
2019-06-10T08:23:04.963Z,1.87
2019-06-10T08:25:33.475Z,1.85
2019-06-10T08:28:02.967Z,1.98
2019-06-10T08:30:32.768Z,1.90
2019-06-10T08:32:59.195Z,1.85
2019-06-10T08:35:41.469Z,1.67
2019-06-10T08:37:56.212Z,1.80
2019-06-10T08:40:24.703Z,1.70
2019-06-10T08:42:53.686Z,1.52
2019-06-10T08:45:22.743Z,1.75
2019-06-10T09:05:12.569Z,2.22
2019-06-10T09:07:39.668Z,2.17
2019-06-10T09:10:07.742Z,1.85
2019-06-10T09:12:36.776Z,2.02
2019-06-10T09:15:13.034Z,1.95
2019-06-10T09:17:42.103Z,1.90
2019-06-10T09:20:08.934Z,1.85
2019-06-10T09:22:37.454Z,2.15
2019-06-10T09:25:06.215Z,1.77
2019-06-10T09:27:34.702Z,1.70
2019-06-10T09:30:03.349Z,1.80
2019-06-10T09:32:32.478Z,1.65
2019-06-10T09:35:03.223Z,1.82
2019-06-10T09:37:29.618Z,1.72
2019-06-10T09:39:59.570Z,1.92
2019-06-10T09:42:26.695Z,1.75
2019-06-10T09:44:55.780Z,2.40
2019-06-10T09:47:24.110Z,1.82
2019-06-10T09:49:55.546Z,2.00
2019-06-10T09:52:23.928Z,1.85
2019-06-10T09:54:56.287Z,1.50
2019-06-10T09:57:18.818Z,1.70
2019-06-10T09:59:50.456Z,1.77
2019-06-10T10:02:15.898Z,1.67
2019-06-10T10:04:48.891Z,1.80
2019-06-10T10:07:13.545Z,1.52
2019-06-10T10:09:47.004Z,1.40
2019-06-10T10:12:12.239Z,2.33
2019-06-10T10:14:44.353Z,1.85
2019-06-10T10:17:09.090Z,1.70
2019-06-10T10:19:37.638Z,1.77
2019-06-10T10:22:06.188Z,1.60
2019-06-10T10:24:34.694Z,1.80
2019-06-10T10:27:08.330Z,1.60
2019-06-10T10:29:32.902Z,1.85
2019-06-10T10:32:02.524Z,1.57
2019-06-10T10:34:28.958Z,1.80
2019-06-10T10:36:57.704Z,1.50
2019-06-10T10:39:26.197Z,1.50
2019-06-10T10:41:57.014Z,1.70
2019-06-10T10:44:23.637Z,1.82
2019-06-10T10:46:54.323Z,1.65
2019-06-10T10:49:22.344Z,2.27
2019-06-10T10:51:49.497Z,1.40
2019-06-10T10:54:29.869Z,1.77
2019-06-10T10:56:49.199Z,2.08
2019-06-10T10:59:15.369Z,1.65
2019-06-10T11:01:44.431Z,2.05
2019-06-10T11:04:13.277Z,1.50
2019-06-10T11:06:42.979Z,1.62
2019-06-10T11:09:12.752Z,1.55
2019-06-10T11:11:43.091Z,1.80
2019-06-10T11:14:09.277Z,1.60
2019-06-10T11:16:37.872Z,1.52
2019-06-10T11:19:13.126Z,2.00
2019-06-10T11:21:43.226Z,1.50
2019-06-10T11:24:14.160Z,1.50
2019-06-10T11:26:39.449Z,1.98
2019-06-10T11:29:07.970Z,1.72
2019-06-10T11:31:36.757Z,1.80
2019-06-10T11:34:05.549Z,1.65
2019-06-10T11:36:34.009Z,1.65
2019-06-10T11:39:02.931Z,2.30
2019-06-10T11:41:32.480Z,1.65
2019-06-10T11:43:59.750Z,1.77
2019-06-10T11:46:28.713Z,1.70
2019-06-10T11:48:59.046Z,1.70
2019-06-10T11:51:26.454Z,1.65
2019-06-10T11:53:57.207Z,1.40
2019-06-10T11:56:23.597Z,1.50
2019-06-10T11:58:55.189Z,1.60
2019-06-10T12:01:22.883Z,1.72
2019-06-10T12:03:51.138Z,1.70
2019-06-10T12:06:18.120Z,1.50
2019-06-10T12:08:46.889Z,1.67
2019-06-10T12:11:15.493Z,1.90
2019-06-10T12:13:44.562Z,1.67
2019-06-10T12:17:05.808Z,1.77
2019-06-10T12:18:42.744Z,1.70
2019-06-10T12:21:13.153Z,1.45
2019-06-10T12:23:39.360Z,1.67
2019-06-10T12:26:07.949Z,1.80
2019-06-10T12:28:36.788Z,2.05
2019-06-10T12:31:06.997Z,1.85
2019-06-10T12:33:34.500Z,1.75
2019-06-10T12:36:06.712Z,1.70
2019-06-10T12:38:33.407Z,1.92
2019-06-10T12:41:03.228Z,1.57
2019-06-10T12:43:28.768Z,1.72
2019-06-10T12:45:57.836Z,1.80
2019-06-10T12:48:26.181Z,1.70
2019-06-10T12:50:57.319Z,1.67
2019-06-10T12:53:23.496Z,1.90
2019-06-10T12:55:53.570Z,1.65
2019-06-10T12:58:22.589Z,1.60
2019-06-10T13:00:49.772Z,1.85
2019-06-10T13:03:18.460Z,1.65
2019-06-10T13:05:47.460Z,1.80
2019-06-10T13:08:18.476Z,1.80
2019-06-10T13:10:45.292Z,2.10
2019-06-10T13:13:14.226Z,1.85
2019-06-10T13:15:43.459Z,1.80
2019-06-10T13:18:18.744Z,1.77
2019-06-10T13:20:43.073Z,1.70
2019-06-10T13:23:23.035Z,1.85
2019-06-10T13:25:50.323Z,1.65
2019-06-10T13:28:07.186Z,1.87
2019-06-10T13:30:35.912Z,1.87
2019-06-10T13:33:09.027Z,2.20
2019-06-10T13:35:33.541Z,1.70
2019-06-10T13:38:04.161Z,1.60
2019-06-10T13:40:31.997Z,1.90
2019-06-10T13:42:59.755Z,1.80
2019-06-10T13:45:33.525Z,2.35
2019-06-10T13:48:06.081Z,2.10
2019-06-10T13:50:33.167Z,2.05
2019-06-10T13:53:03.756Z,2.08
2019-06-10T13:55:32.796Z,2.00
2019-06-10T13:58:03.847Z,2.20
2019-06-10T14:00:40.879Z,2.00
2019-06-10T14:02:59.940Z,2.10
2019-06-10T14:05:28.423Z,2.33
2019-06-10T14:07:57.096Z,2.22
2019-06-10T14:10:25.861Z,2.60
2019-06-10T14:12:54.541Z,2.30
2019-06-10T14:15:23.183Z,1.92
2019-06-10T14:17:52.728Z,2.27
2019-06-10T14:20:22.933Z,2.47
2019-06-10T14:22:49.191Z,2.55
2019-06-10T14:25:17.823Z,3.00
2019-06-10T14:27:46.482Z,2.55
2019-06-10T14:30:15.525Z,2.47
2019-06-10T14:32:44.083Z,2.33
2019-06-10T14:35:16.156Z,2.45
2019-06-10T14:37:43.001Z,2.83
2019-06-10T14:40:13.242Z,3.00
2019-06-10T14:42:39.079Z,3.27
2019-06-10T14:45:08.688Z,2.70
2019-06-10T14:47:36.559Z,2.58
2019-06-10T14:50:06.781Z,2.95
2019-06-10T14:52:35.044Z,3.30
2019-06-10T14:55:05.205Z,2.95
2019-06-10T14:57:33.483Z,2.90
2019-06-10T15:00:02.941Z,2.95
2019-06-10T15:02:33.299Z,2.77
2019-06-10T15:04:59.394Z,2.98
2019-06-10T15:07:28.379Z,2.72
2019-06-10T15:09:57.139Z,2.98
2019-06-10T15:12:26.034Z,3.25
2019-06-10T15:14:55.086Z,2.80
2019-06-10T15:17:23.658Z,3.52
2019-06-10T15:19:53.018Z,3.27
2019-06-10T15:22:23.398Z,3.37
2019-06-10T15:24:49.716Z,3.70
2019-06-10T15:27:25.638Z,2.95
2019-06-10T15:29:47.014Z,3.15
2019-06-10T15:32:28.679Z,3.10
2019-06-10T15:34:44.478Z,2.83
2019-06-10T15:37:16.733Z,3.27
2019-06-10T15:39:42.401Z,2.85
2019-06-10T15:42:11.567Z,3.42
2019-06-10T15:44:51.838Z,3.10
2019-06-10T15:47:10.721Z,3.20
2019-06-10T15:49:38.801Z,3.27
2019-06-10T15:52:08.763Z,3.35
2019-06-10T15:54:37.558Z,3.15
2019-06-10T15:57:21.669Z,3.25
2019-06-10T15:59:35.136Z,3.37
2019-06-10T16:02:03.927Z,3.75
2019-06-10T16:04:35.138Z,3.42
2019-06-10T16:07:02.554Z,3.62
2019-06-10T16:09:32.143Z,3.40
2019-06-10T16:11:59.478Z,3.20
2019-06-10T16:14:28.120Z,3.62
2019-06-10T16:16:57.870Z,3.37
2019-06-10T16:19:26.773Z,3.62
2019-06-10T16:21:55.535Z,3.83
2019-06-10T16:24:27.374Z,3.70
2019-06-10T16:26:53.135Z,3.80
2019-06-10T16:29:24.205Z,3.85
2019-06-10T16:31:52.890Z,3.42
2019-06-10T16:34:21.953Z,3.95
2019-06-10T16:36:48.907Z,4.35
2019-06-10T16:39:17.425Z,3.22
2019-06-10T16:41:46.253Z,3.75
2019-06-10T16:44:15.787Z,3.62
2019-06-10T16:46:43.485Z,3.75
2019-06-10T16:49:12.919Z,3.83
2019-06-10T16:51:42.929Z,3.80
2019-06-10T16:54:09.877Z,3.72
2019-06-10T16:56:38.449Z,3.90
2019-06-10T16:59:06.973Z,4.25
2019-06-10T17:01:35.529Z,3.55
2019-06-10T17:04:12.426Z,3.70
2019-06-10T17:06:39.285Z,3.98
2019-06-10T17:09:08.316Z,3.80
2019-06-10T17:11:36.888Z,3.85
2019-06-10T17:14:05.556Z,4.00
2019-06-10T17:16:34.263Z,3.90
2019-06-10T17:19:03.069Z,3.83
2019-06-10T17:21:34.590Z,4.25
2019-06-10T17:24:03.448Z,3.58
2019-06-10T17:26:35.592Z,3.80
2019-06-10T17:28:58.961Z,4.60
2019-06-10T17:31:30.861Z,3.90
2019-06-10T17:33:56.421Z,4.78
2019-06-10T17:36:27.982Z,4.20
2019-06-10T17:38:53.501Z,4.00
2019-06-10T17:41:25.769Z,4.17
2019-06-10T17:43:52.114Z,4.40
2019-06-10T17:46:19.224Z,4.33
2019-06-10T17:48:47.949Z,4.42
2019-06-10T17:51:16.736Z,4.15
2019-06-10T17:53:45.728Z,3.85
2019-06-10T17:56:14.239Z,4.15
2019-06-10T17:58:51.689Z,4.30
2019-06-10T18:01:12.923Z,3.67
2019-06-10T18:03:40.247Z,3.58
2019-06-10T18:06:08.672Z,4.22
2019-06-10T18:08:40.578Z,3.90
2019-06-10T18:11:05.743Z,4.22
2019-06-10T18:13:35.913Z,4.40
2019-06-10T18:16:02.971Z,4.10
2019-06-10T18:18:36.556Z,4.33
2019-06-10T18:21:00.207Z,4.40
2019-06-10T18:23:28.698Z,4.60
2019-06-10T18:25:57.323Z,4.35
2019-06-10T18:28:26.976Z,4.00
2019-06-10T18:30:54.651Z,4.40
2019-06-10T18:33:23.316Z,4.20
2019-06-10T18:35:53.230Z,3.87
2019-06-10T18:38:20.643Z,3.70
2019-06-10T18:40:49.087Z,4.05
2019-06-10T18:43:18.314Z,3.40
2019-06-10T18:45:46.351Z,3.98
2019-06-10T18:48:14.979Z,3.37
2019-06-10T18:50:43.743Z,3.35
2019-06-10T18:53:12.978Z,3.67
2019-06-10T18:55:43.625Z,3.40
2019-06-10T18:58:09.906Z,3.72
2019-06-10T19:00:54.801Z,3.30
2019-06-10T19:03:12.449Z,3.02
2019-06-10T19:05:36.662Z,3.83
2019-06-10T19:08:04.322Z,3.37
2019-06-10T19:10:35.270Z,3.77
2019-06-10T19:13:02.466Z,3.35
2019-06-10T19:15:31.658Z,3.33
2019-06-10T19:17:58.927Z,3.85
2019-06-10T19:20:27.751Z,3.60
2019-06-10T19:22:56.830Z,3.62
2019-06-10T19:25:25.339Z,4.28
2019-06-10T19:27:53.960Z,3.33
2019-06-10T19:30:23.260Z,3.27
2019-06-10T19:32:52.818Z,3.27
2019-06-10T19:35:22.225Z,3.40
2019-06-10T19:37:48.351Z,3.33
2019-06-10T19:40:17.011Z,3.25
2019-06-10T19:42:45.571Z,3.72
2019-06-10T19:45:14.231Z,3.77
2019-06-10T19:47:45.552Z,3.70
2019-06-10T19:50:12.209Z,4.15
2019-06-10T19:52:41.614Z,3.92
2019-06-10T19:55:08.868Z,4.05
2019-06-10T19:57:37.515Z,4.10
2019-06-10T20:00:11.666Z,3.77
2019-06-10T20:02:35.759Z,3.98
2019-06-10T20:05:05.157Z,4.12
2019-06-10T20:07:33.938Z,4.25
2019-06-10T20:10:02.830Z,4.05
2019-06-10T20:12:32.452Z,4.80
2019-06-10T20:15:02.255Z,4.20
2019-06-10T20:17:29.289Z,4.22
2019-06-10T20:19:57.797Z,4.10
2019-06-10T20:22:26.405Z,4.47
2019-06-10T20:24:55.486Z,4.80
2019-06-10T20:27:24.271Z,4.80
2019-06-10T20:30:04.557Z,4.80
2019-06-10T20:32:22.707Z,4.95
2019-06-10T20:34:52.723Z,4.90
2019-06-10T20:37:19.103Z,5.10
2019-06-10T20:39:48.456Z,4.62
2019-06-10T20:42:17.386Z,4.55
2019-06-10T20:44:47.449Z,4.80
2019-06-10T20:47:14.772Z,4.62
2019-06-10T21:14:25.806Z,2.47
2019-06-10T21:16:54.352Z,2.10
2019-06-10T21:19:23.554Z,2.12
2019-06-10T21:21:54.703Z,2.83
2019-06-10T21:24:23.146Z,2.20
2019-06-10T21:26:54.295Z,1.82
2019-06-10T21:29:18.855Z,2.50
2019-06-10T21:31:52.220Z,2.42
2019-06-10T21:34:25.867Z,3.12
2019-06-10T21:36:54.681Z,4.47
2019-06-10T21:39:23.913Z,4.62
2019-06-10T21:41:54.331Z,3.70
2019-06-10T21:44:23.130Z,3.92
2019-06-10T21:46:50.604Z,11.97
2019-06-10T21:49:19.410Z,8.78
2019-06-10T21:51:49.120Z,3.95
2019-06-10T21:54:17.083Z,2.15
2019-06-10T21:56:46.890Z,2.12
2019-06-10T21:59:14.698Z,2.20
2019-06-10T22:01:44.632Z,2.60
2019-06-10T22:04:13.378Z,2.67
2019-06-10T22:06:42.341Z,2.60
2019-06-10T22:09:12.352Z,2.70
2019-06-10T22:11:38.606Z,2.47
2019-06-10T22:14:07.354Z,3.20
2019-06-10T22:16:35.900Z,3.20
2019-06-10T22:19:04.539Z,3.12
2019-06-10T22:21:33.078Z,2.90
2019-06-10T22:24:02.308Z,2.70
2019-06-10T22:26:32.288Z,3.12
2019-06-10T22:28:59.426Z,2.42
2019-06-10T22:31:28.086Z,2.20
2019-06-10T22:33:57.700Z,2.40
2019-06-10T22:36:25.622Z,2.17
2019-06-10T22:38:57.732Z,2.55
2019-06-10T22:41:23.504Z,2.62
2019-06-10T22:43:54.557Z,1.98
2019-06-10T22:46:22.966Z,1.90
2019-06-10T22:48:49.223Z,2.30
2019-06-10T22:51:17.777Z,2.20
2019-06-10T22:53:46.296Z,2.00
2019-06-10T22:56:14.798Z,2.10
2019-06-10T22:58:43.786Z,2.33
2019-06-10T23:01:12.823Z,1.75
2019-06-10T23:03:41.602Z,2.77
2019-06-10T23:06:12.467Z,2.30
2019-06-10T23:08:38.727Z,2.15
2019-06-10T23:11:07.162Z,2.30
2019-06-10T23:13:35.702Z,2.45
2019-06-10T23:16:04.298Z,2.70
2019-06-10T23:18:32.890Z,2.08
2019-06-10T23:21:04.044Z,2.10
2019-06-10T23:23:32.469Z,2.60
2019-06-10T23:25:58.618Z,2.12
2019-06-10T23:28:27.146Z,2.15
2019-06-10T23:30:58.881Z,2.33
2019-06-10T23:33:24.634Z,2.80
2019-06-10T23:35:54.425Z,2.60
2019-06-10T23:38:23.620Z,2.47
2019-06-10T23:40:51.174Z,2.77
2019-06-10T23:43:19.666Z,3.05
2019-06-10T23:45:48.204Z,2.98
2019-06-10T23:48:17.006Z,3.02
2019-06-10T23:50:45.522Z,3.00
2019-06-10T23:53:14.226Z,2.80
2019-06-10T23:55:42.941Z,2.90
2019-06-10T23:58:12.961Z,2.95
